WetterOnline ( https://www.wetteronline.ch )

Wetter aktuell Ahaus

Aktuelles Wetter: Ahaus (46m)

6-stündlich | Neueste Meldungen
Ortszeit Temperatur Wetter
Di, 20.08. 8:00 12.9° C leicht bewölkt
Di, 20.08. 2:00 12.7° C fast wolkenlos
Mo, 19.08. 20:00 19.0° C bewölkt
Mo, 19.08. 14:00 19.7° C bewölkt
Mo, 19.08. 8:00 13.8° C fast wolkenlos
Mo, 19.08. 2:00 14.3° C leicht bewölkt
So, 18.08. 20:00 18.7° C wolkig
So, 18.08. 14:00 16.0° C Regen
Ortszeit Temperatur Wetter
Di, 20.08. 11:30 18.7° C leicht bewölkt
Di, 20.08. 11:20 18.7° C leicht bewölkt
Di, 20.08. 11:10 17.9° C wolkig
Di, 20.08. 11:00 17.4° C leicht bewölkt
Di, 20.08. 10:50 17.4° C leicht bewölkt
Di, 20.08. 10:40 17.3° C fast wolkenlos
Di, 20.08. 10:30 16.9° C fast wolkenlos
Di, 20.08. 10:00 15.9° C wolkenlos
Di, 20.08. 9:30 15.2° C wolkenlos
Di, 20.08. 9:00 14.1° C wolkenlos
Di, 20.08. 8:30 13.4° C fast wolkenlos
Ortszeit Relative Feuchte Sichtweite
Di, 20.08. 8:00 88% 26 km
Di, 20.08. 2:00 91% 23 km
Mo, 19.08. 20:00 67% 50 km
Mo, 19.08. 14:00 58% 40 km
Mo, 19.08. 8:00 88% 20 km
Mo, 19.08. 2:00 92% 19 km
So, 18.08. 20:00 81% 30 km
So, 18.08. 14:00 91% 9 km
Ortszeit Relative Feuchte Sichtweite
Di, 20.08. 11:30 70% 21 km
Di, 20.08. 11:20 70% -
Di, 20.08. 11:10 72% -
Di, 20.08. 11:00 75% 21 km
Di, 20.08. 10:50 75% -
Di, 20.08. 10:40 77% -
Di, 20.08. 10:30 78% 28 km
Di, 20.08. 10:00 80% 21 km
Di, 20.08. 9:30 83% 24 km
Di, 20.08. 9:00 84% 19 km
Di, 20.08. 8:30 87% 18 km
Ortszeit Niederschlagsmenge Niederschlagsart
Di, 20.08. 8:00 0.7 l/m2 in 12 Std. -
Di, 20.08. 2:00 0.7 l/m2 in 6 Std. Regen
Mo, 19.08. 20:00 0.0 l/m2 in 12 Std. -
Mo, 19.08. 14:00 0.0 l/m2 in 6 Std. -
Mo, 19.08. 8:00 1 l/m2 in 12 Std. -
Mo, 19.08. 2:00 1 l/m2 in 6 Std. Regen
So, 18.08. 20:00 3 l/m2 in 12 Std. Regen
So, 18.08. 14:00 3 l/m2 in 6 Std. Regen
Ortszeit Niederschlagsmenge Niederschlagsart
Di, 20.08. 11:30 0.0 l/m2 in 1 Std. -
Di, 20.08. 11:20 keine Meldung -
Di, 20.08. 11:10 keine Meldung -
Di, 20.08. 11:00 0.0 l/m2 in 1 Std. -
Di, 20.08. 10:50 keine Meldung -
Di, 20.08. 10:40 keine Meldung -
Di, 20.08. 10:30 0.0 l/m2 in 1 Std. -
Di, 20.08. 10:00 0.0 l/m2 in 1 Std. -
Di, 20.08. 9:30 0.0 l/m2 in 1 Std. -
Di, 20.08. 9:00 0.0 l/m2 in 1 Std. -
Di, 20.08. 8:30 0.0 l/m2 in 1 Std. -
Ortszeit Stärke Spitze Richtung
km/h Bft. km/h Grad Sektor
Di, 20.08. 8:00 13 3 20 210° SW
Di, 20.08. 2:00 7 2 47 220° SW
Mo, 19.08. 20:00 7 2 40 240° SW
Mo, 19.08. 14:00 22 4 36 220° SW
Mo, 19.08. 8:00 15 3 30 220° SW
Mo, 19.08. 2:00 9 2 24 220° SW
So, 18.08. 20:00 11 2 25 210° SW
So, 18.08. 14:00 4 1 25 210° SW
Ortszeit Stärke Spitze Richtung
km/h Bft. km/h Grad Sektor
Di, 20.08. 11:30 11 2 22 220° SW
Di, 20.08. 11:20 11 2 - 220° SW
Di, 20.08. 11:10 13 3 - 220° SW
Di, 20.08. 11:00 13 3 26 230° SW
Di, 20.08. 10:50 13 3 - 230° SW
Di, 20.08. 10:40 13 3 - 220° SW
Di, 20.08. 10:30 13 3 26 220° SW
Di, 20.08. 10:00 11 2 22 230° SW
Di, 20.08. 9:30 13 3 22 230° SW
Di, 20.08. 9:00 13 3 24 220° SW
Di, 20.08. 8:30 17 3 24 220° SW
Ortszeit Untergrenze Bedeckung Gattung
total tief tief mittel hoch
Di, 20.08. 8:00 8100 m 3/8 0/8 - - -
Di, 20.08. 2:00 7800 m 2/8 0/8 - - -
Mo, 19.08. 20:00 1500 m 7/8 7/8 - - -
Mo, 19.08. 14:00 1230 m 7/8 7/8 - - -
Mo, 19.08. 8:00 570 m 1/8 1/8 - - -
Mo, 19.08. 2:00 9000 m 4/8 0/8 - - -
So, 18.08. 20:00 660 m 8/8 1/8 - - -
So, 18.08. 14:00 270 m 8/8 8/8 - - -
Ortszeit Bedeckungsgrad in Achtel und Wolkenuntergrenze
Di, 20.08. 11:30 1(600m) 6(9000m)
Di, 20.08. 11:20 1(600m) 6(9000m)
Di, 20.08. 11:10 7(9000m)
Di, 20.08. 11:00 5(9000m)
Di, 20.08. 10:50 5(9000m)
Di, 20.08. 10:40 1(9000m)
Di, 20.08. 10:30 1(8100m) 1(10500m)
Di, 20.08. 10:00 keine Wolken
Di, 20.08. 9:30 keine Wolken
Di, 20.08. 9:00 keine Wolken
Di, 20.08. 8:30 1(8100m)
Ortszeit Luftdruck NN (hPa) Tendenz (hPa in 3 Std.)
Di, 20.08. 8:00 1021 + 1,3
Di, 20.08. 2:00 1019 + 0,9
Mo, 19.08. 20:00 1017 + 0,5
Mo, 19.08. 14:00 1016 + 0,9
Mo, 19.08. 8:00 1014 + 1,5
Mo, 19.08. 2:00 1011 + 1,6
So, 18.08. 20:00 1008 + 1,2
So, 18.08. 14:00 1005 - 0,2
Ortszeit Luftdruck NN (hPa) Tendenz (hPa in 3 Std.)
Di, 20.08. 11:30 1022 + 0,7
Di, 20.08. 11:20 1022 keine Meldung
Di, 20.08. 11:10 1022 keine Meldung
Di, 20.08. 11:00 1022 + 1,1
Di, 20.08. 10:50 1022 keine Meldung
Di, 20.08. 10:40 1022 keine Meldung
Di, 20.08. 10:30 1022 + 1,3
Di, 20.08. 10:00 1021 + 1,0
Di, 20.08. 9:30 1021 + 1,3
Di, 20.08. 9:00 1021 + 1,5
Di, 20.08. 8:30 1021 + 1,5
Ortszeit Schneehöhe (cm)
Di, 20.08. 8:00 -
Di, 20.08. 2:00 -
Mo, 19.08. 20:00 -
Mo, 19.08. 14:00 -
Mo, 19.08. 8:00 -
Mo, 19.08. 2:00 -
So, 18.08. 20:00 -
So, 18.08. 14:00 -
Ortszeit Schneehöhe (cm)
Di, 20.08. 11:30 -
Di, 20.08. 11:20 -
Di, 20.08. 11:10 -
Di, 20.08. 11:00 -
Di, 20.08. 10:50 -
Di, 20.08. 10:40 -
Di, 20.08. 10:30 -
Di, 20.08. 10:00 -
Di, 20.08. 9:30 -
Di, 20.08. 9:00 -
Di, 20.08. 8:30 -
Link zu dieser Seite / Seite empfehlen

Das Wetter in ...